createdAt,value
2019-05-05T00:00:41.577Z,10.23
2019-05-05T00:03:24.985Z,11.37
2019-05-05T00:05:55.436Z,12.40
2019-05-05T00:08:24.609Z,9.20
2019-05-05T00:10:56.983Z,13.40
2019-05-05T00:13:35.627Z,10.73
2019-05-05T00:16:24.395Z,9.50
2019-05-05T00:18:54.362Z,7.70
2019-05-05T00:21:24.404Z,5.60
2019-05-05T00:23:55.182Z,8.97
2019-05-05T00:26:24.371Z,8.63
2019-05-05T00:28:55.221Z,13.03
2019-05-05T00:31:24.237Z,7.27
2019-05-05T00:33:54.379Z,14.57
2019-05-05T00:36:24.642Z,13.07
2019-05-05T00:38:55.265Z,11.90
2019-05-05T00:41:25.330Z,7.63
2019-05-05T00:43:55.375Z,7.30
2019-05-05T00:46:25.944Z,13.17
2019-05-05T00:48:55.088Z,7.97
2019-05-05T00:51:24.516Z,9.70
2019-05-05T00:53:55.278Z,11.17
2019-05-05T00:56:25.051Z,16.13
2019-05-05T00:58:55.598Z,8.10
2019-05-05T01:01:28.688Z,13.47
2019-05-05T01:03:57.492Z,12.87
2019-05-05T01:06:27.884Z,8.40
2019-05-05T01:08:56.614Z,12.83
2019-05-05T01:11:25.937Z,10.40
2019-05-05T01:13:54.851Z,12.80
2019-05-05T01:16:24.756Z,12.60
2019-05-05T01:18:55.371Z,12.77
2019-05-05T01:21:24.497Z,9.33
2019-05-05T01:23:54.790Z,12.77
2019-05-05T01:26:24.889Z,14.07
2019-05-05T01:28:53.889Z,14.47
2019-05-05T01:31:25.115Z,10.47
2019-05-05T01:34:10.142Z,9.20
2019-05-05T01:36:38.928Z,13.57
2019-05-05T01:39:18.260Z,12.13
2019-05-05T01:41:48.776Z,13.27
2019-05-05T01:44:17.504Z,13.83
2019-05-05T01:46:46.327Z,11.77
2019-05-05T01:49:15.158Z,9.37
2019-05-05T01:51:44.753Z,9.30
2019-05-05T01:54:14.518Z,9.30
2019-05-05T01:56:44.551Z,8.33
2019-05-05T01:59:14.380Z,15.73
2019-05-05T02:01:44.545Z,8.37
2019-05-05T02:04:14.443Z,11.00
2019-05-05T02:06:44.351Z,11.23
2019-05-05T02:09:15.937Z,8.43
2019-05-05T02:11:45.258Z,11.20
2019-05-05T02:14:15.576Z,7.90
2019-05-05T02:16:45.149Z,12.23
2019-05-05T02:19:14.370Z,7.63
2019-05-05T02:21:45.215Z,7.27
2019-05-05T02:24:14.509Z,10.80
2019-05-05T02:26:45.436Z,12.83
2019-05-05T02:29:15.442Z,11.40
2019-05-05T02:32:02.051Z,16.50
2019-05-05T02:34:35.661Z,10.33
2019-05-05T02:37:05.481Z,14.40
2019-05-05T02:39:35.327Z,10.30
2019-05-05T02:42:05.775Z,13.17
2019-05-05T02:44:35.740Z,13.00
2019-05-05T02:47:08.402Z,14.60
2019-05-05T02:49:37.613Z,12.20
2019-05-05T02:52:06.745Z,12.03
2019-05-05T02:54:36.672Z,13.47
2019-05-05T02:57:05.473Z,11.97
2019-05-05T02:59:36.084Z,17.23
2019-05-05T03:02:09.157Z,11.33
2019-05-05T03:04:38.252Z,12.03
2019-05-05T03:07:09.617Z,10.87
2019-05-05T03:09:38.846Z,11.77
2019-05-05T03:12:10.963Z,13.97
2019-05-05T03:14:42.146Z,12.67
2019-05-05T03:17:14.317Z,7.43
2019-05-05T03:19:44.546Z,9.80
2019-05-05T03:22:14.367Z,9.63
2019-05-05T03:24:44.672Z,20.07
2019-05-05T03:27:14.376Z,8.20
2019-05-05T03:29:44.210Z,7.40
2019-05-05T03:32:16.086Z,8.80
2019-05-05T03:34:44.507Z,8.37
2019-05-05T03:37:14.589Z,9.17
2019-05-05T03:39:45.305Z,10.67
2019-05-05T03:42:15.875Z,9.40
2019-05-05T03:44:46.591Z,6.63
2019-05-05T03:47:15.596Z,10.50
2019-05-05T03:49:44.317Z,11.90
2019-05-05T03:52:13.871Z,7.83
2019-05-05T03:54:43.662Z,11.67
2019-05-05T03:57:14.101Z,14.40
2019-05-05T03:59:44.457Z,11.57
2019-05-05T04:02:26.924Z,11.23
2019-05-05T04:04:57.329Z,8.97
2019-05-05T04:07:26.046Z,8.37
2019-05-05T04:09:54.868Z,6.70
2019-05-05T04:12:24.195Z,19.67
2019-05-05T04:14:54.623Z,9.63
2019-05-05T04:17:33.811Z,9.53
2019-05-05T04:20:04.170Z,7.67
2019-05-05T04:22:34.309Z,8.73
2019-05-05T04:25:04.635Z,7.37
2019-05-05T04:27:34.309Z,6.63
2019-05-05T04:30:03.977Z,7.43
2019-05-05T04:32:34.793Z,9.43
2019-05-05T04:35:03.791Z,9.20
2019-05-05T04:37:34.149Z,10.40
2019-05-05T04:40:04.179Z,8.23
2019-05-05T04:42:33.665Z,9.43
2019-05-05T04:45:04.250Z,9.87
2019-05-05T04:47:34.564Z,13.73
2019-05-05T04:50:05.925Z,11.10
2019-05-05T04:52:34.668Z,9.33
2019-05-05T04:55:04.303Z,9.63
2019-05-05T04:57:35.237Z,10.87
2019-05-05T05:00:04.229Z,9.90
2019-05-05T05:02:51.005Z,11.90
2019-05-05T05:05:24.537Z,12.23
2019-05-05T05:07:54.311Z,6.07
2019-05-05T05:10:24.144Z,5.17
2019-05-05T05:12:54.015Z,6.47
2019-05-05T05:15:23.900Z,6.43
2019-05-05T05:17:54.413Z,7.23
2019-05-05T05:20:24.684Z,6.40
2019-05-05T05:22:54.413Z,9.67
2019-05-05T05:25:24.005Z,6.97
2019-05-05T05:27:53.621Z,7.13
2019-05-05T05:30:24.263Z,8.50
2019-05-05T05:32:53.853Z,10.37
2019-05-05T05:35:24.420Z,6.40
2019-05-05T05:37:54.000Z,10.03
2019-05-05T05:40:39.828Z,8.13
2019-05-05T05:43:10.221Z,9.97
2019-05-05T05:45:43.669Z,10.83
2019-05-05T05:48:14.524Z,8.43
2019-05-05T05:50:47.979Z,6.10
2019-05-05T05:53:16.787Z,9.23
2019-05-05T05:55:45.581Z,8.00
2019-05-05T05:58:14.398Z,8.47
2019-05-05T06:00:44.216Z,6.27
2019-05-05T06:03:14.158Z,5.87
2019-05-05T06:05:43.693Z,9.30
2019-05-05T06:08:14.185Z,6.83
2019-05-05T06:10:44.236Z,9.40
2019-05-05T06:13:15.439Z,9.70
2019-05-05T06:15:44.365Z,6.73
2019-05-05T06:18:13.858Z,8.00
2019-05-05T06:20:44.544Z,11.10
2019-05-05T06:23:14.709Z,9.90
2019-05-05T06:25:44.465Z,7.13
2019-05-05T06:28:14.465Z,5.73
2019-05-05T06:30:44.392Z,8.50
2019-05-05T06:33:13.817Z,6.97
2019-05-05T06:35:44.357Z,5.10
2019-05-05T06:38:13.592Z,5.40
2019-05-05T06:40:46.993Z,9.33
2019-05-05T06:43:17.364Z,6.90
2019-05-05T06:45:47.737Z,9.33
2019-05-05T06:48:16.494Z,5.97
2019-05-05T06:50:45.232Z,6.00
2019-05-05T06:53:14.032Z,7.33
2019-05-05T06:55:44.457Z,3.40
2019-05-05T06:58:13.731Z,7.07
2019-05-05T07:00:44.103Z,7.87
2019-05-05T07:03:13.953Z,5.23
2019-05-05T07:05:43.771Z,3.30
2019-05-05T07:08:13.847Z,5.27
2019-05-05T07:10:44.451Z,5.50
2019-05-05T07:13:13.995Z,4.07
2019-05-05T07:15:43.767Z,7.83
2019-05-05T07:18:14.240Z,6.30
2019-05-05T07:20:44.053Z,5.07
2019-05-05T07:23:14.502Z,4.10
2019-05-05T07:25:45.920Z,5.97
2019-05-05T07:28:14.656Z,8.97
2019-05-05T07:30:44.214Z,6.17
2019-05-05T07:33:14.869Z,3.67
2019-05-05T07:35:56.662Z,7.67
2019-05-05T07:38:24.300Z,4.87
2019-05-05T07:40:54.373Z,4.57
2019-05-05T07:43:23.972Z,3.90
2019-05-05T07:45:54.021Z,2.17
2019-05-05T07:48:24.328Z,6.90
2019-05-05T07:51:01.572Z,5.73
2019-05-05T07:53:24.495Z,7.00
2019-05-05T07:55:54.189Z,5.47
2019-05-05T07:58:24.275Z,2.80
2019-05-05T08:00:54.141Z,7.47
2019-05-05T08:03:23.634Z,3.37
2019-05-05T08:05:54.412Z,3.93
2019-05-05T08:08:24.425Z,3.07
2019-05-05T08:10:54.208Z,4.43
2019-05-05T08:13:24.354Z,3.30
2019-05-05T08:15:59.753Z,3.43
2019-05-05T08:18:34.461Z,2.97
2019-05-05T08:21:04.608Z,7.47
2019-05-05T08:23:35.511Z,4.77
2019-05-05T08:26:13.693Z,4.83
2019-05-05T08:28:53.979Z,3.03
2019-05-05T08:31:33.951Z,4.17
2019-05-05T08:34:03.831Z,2.43
2019-05-05T08:36:33.823Z,6.33
2019-05-05T08:39:03.707Z,5.43
2019-05-05T08:41:33.818Z,8.27
2019-05-05T08:44:03.659Z,3.60
2019-05-05T08:46:34.069Z,5.57
2019-05-05T08:49:04.379Z,3.87
2019-05-05T08:51:33.929Z,1.93
2019-05-05T08:54:03.913Z,4.10
2019-05-05T08:56:34.391Z,3.87
2019-05-05T08:59:03.741Z,6.60
2019-05-05T09:01:34.322Z,8.23
2019-05-05T09:04:04.151Z,2.23
2019-05-05T09:06:34.183Z,1.47
2019-05-05T09:09:03.921Z,8.83
2019-05-05T09:11:34.286Z,8.43
2019-05-05T09:14:04.165Z,3.13
2019-05-05T09:16:33.509Z,3.00
2019-05-05T09:19:14.520Z,1.50
2019-05-05T09:21:44.773Z,1.63
2019-05-05T09:24:18.077Z,4.20
2019-05-05T09:26:54.064Z,3.17
2019-05-05T09:29:30.664Z,3.07
2019-05-05T09:31:59.758Z,4.67
2019-05-05T09:34:28.560Z,3.80
2019-05-05T09:36:58.610Z,4.07
2019-05-05T09:39:27.346Z,4.70
2019-05-05T09:41:56.096Z,3.07
2019-05-05T09:44:24.876Z,3.30
2019-05-05T09:46:53.926Z,4.10
2019-05-05T09:49:24.646Z,5.43
2019-05-05T09:51:54.463Z,3.13
2019-05-05T09:54:24.253Z,4.97
2019-05-05T09:56:53.866Z,2.10
2019-05-05T09:59:24.066Z,2.57
2019-05-05T10:01:53.872Z,4.00
2019-05-05T10:04:24.292Z,1.87
2019-05-05T10:06:53.163Z,4.10
2019-05-05T10:09:24.056Z,2.37
2019-05-05T10:11:54.011Z,3.67
2019-05-05T10:14:22.903Z,3.30
2019-05-05T10:16:53.896Z,4.53
2019-05-05T10:19:24.222Z,3.63
2019-05-05T10:21:52.506Z,3.17
2019-05-05T10:24:30.711Z,3.23
2019-05-05T10:26:58.468Z,3.57
2019-05-05T10:29:26.392Z,5.10
2019-05-05T10:31:55.157Z,1.57
2019-05-05T10:34:24.242Z,3.40
2019-05-05T10:36:53.620Z,3.80
2019-05-05T10:39:33.543Z,4.87
2019-05-05T10:42:04.070Z,6.40
2019-05-05T10:44:34.063Z,2.40
2019-05-05T10:47:04.561Z,3.70
2019-05-05T10:49:33.758Z,1.97
2019-05-05T10:52:03.773Z,6.90
2019-05-05T10:54:43.336Z,3.27
2019-05-05T10:57:04.155Z,2.87
2019-05-05T10:59:34.371Z,3.10
2019-05-05T11:02:04.919Z,2.00
2019-05-05T11:04:33.939Z,3.33
2019-05-05T11:07:04.163Z,1.40
2019-05-05T11:09:34.082Z,5.00
2019-05-05T11:12:02.873Z,4.77
2019-05-05T11:14:33.538Z,6.00
2019-05-05T11:17:04.180Z,5.80
2019-05-05T11:19:33.607Z,1.60
2019-05-05T11:22:02.541Z,3.87
2019-05-05T11:24:31.265Z,3.23
2019-05-05T11:27:00.124Z,5.63
2019-05-05T11:29:28.987Z,2.03
2019-05-05T11:31:59.381Z,1.97
2019-05-05T11:34:28.402Z,2.23
2019-05-05T11:36:58.767Z,6.20
2019-05-05T11:39:27.561Z,6.03
2019-05-05T11:41:56.339Z,4.07
2019-05-05T11:44:25.129Z,3.27
2019-05-05T11:46:54.670Z,1.47
2019-05-05T11:49:24.476Z,4.23
2019-05-05T11:51:54.183Z,4.67
2019-05-05T11:54:24.890Z,0.90
2019-05-05T11:56:54.022Z,4.90
2019-05-05T11:59:23.805Z,2.80
2019-05-05T12:01:54.931Z,4.00
2019-05-05T12:04:23.952Z,1.63
2019-05-05T12:06:52.977Z,2.17
2019-05-05T12:09:24.735Z,3.00
2019-05-05T12:11:54.499Z,3.27
2019-05-05T12:14:27.048Z,2.00
2019-05-05T12:16:55.497Z,2.67
2019-05-05T12:19:24.476Z,4.70
2019-05-05T12:21:54.767Z,2.37
2019-05-05T12:24:25.398Z,3.40
2019-05-05T12:26:55.778Z,2.83
2019-05-05T12:29:24.970Z,3.03
2019-05-05T12:31:53.812Z,2.87
2019-05-05T12:34:23.611Z,3.70
2019-05-05T12:36:53.903Z,1.40
2019-05-05T12:39:22.881Z,2.23
2019-05-05T12:41:51.622Z,3.07
2019-05-05T12:44:23.620Z,5.23
2019-05-05T12:46:56.664Z,6.80
2019-05-05T12:49:25.524Z,5.73
2019-05-05T12:51:54.294Z,2.53
2019-05-05T12:54:24.517Z,5.03
2019-05-05T12:56:53.971Z,4.83
2019-05-05T12:59:24.895Z,2.50
2019-05-05T13:01:54.733Z,3.40
2019-05-05T13:04:24.542Z,1.83
2019-05-05T13:06:54.084Z,2.40
2019-05-05T13:09:24.327Z,4.70
2019-05-05T13:11:54.200Z,0.70
2019-05-05T13:14:23.088Z,3.47
2019-05-05T13:16:55.311Z,1.57
2019-05-05T13:19:26.948Z,5.77
2019-05-05T13:22:00.359Z,3.23
2019-05-05T13:24:47.431Z,5.97
2019-05-05T13:27:20.812Z,2.47
2019-05-05T13:29:53.513Z,4.33
2019-05-05T13:32:19.916Z,4.63
2019-05-05T13:34:48.752Z,3.43
2019-05-05T13:37:17.479Z,3.07
2019-05-05T13:39:46.258Z,6.63
2019-05-05T13:42:14.990Z,4.23
2019-05-05T13:45:00.602Z,2.63
2019-05-05T13:47:29.424Z,4.80
2019-05-05T13:50:08.910Z,1.63
2019-05-05T13:52:37.669Z,1.47
2019-05-05T13:55:07.721Z,3.60
2019-05-05T13:57:36.452Z,3.27
2019-05-05T14:00:07.538Z,2.80
2019-05-05T14:02:36.281Z,3.17
2019-05-05T14:05:06.746Z,6.77
2019-05-05T14:07:35.482Z,2.47
2019-05-05T14:10:05.198Z,7.63
2019-05-05T14:12:34.515Z,3.57
2019-05-05T14:15:04.085Z,3.23
2019-05-05T14:17:33.038Z,4.57
2019-05-05T14:20:06.693Z,3.20
2019-05-05T14:22:32.184Z,5.40
2019-05-05T14:25:04.318Z,3.07
2019-05-05T14:27:32.990Z,3.90
2019-05-05T14:30:04.073Z,5.23
2019-05-05T14:32:34.673Z,4.30
2019-05-05T14:35:05.672Z,3.27
2019-05-05T14:37:41.806Z,4.70
2019-05-05T14:40:11.352Z,4.27
2019-05-05T14:42:40.085Z,2.87
2019-05-05T14:45:10.442Z,5.50
2019-05-05T14:47:39.227Z,2.90
2019-05-05T14:50:08.399Z,4.40
2019-05-05T14:52:37.182Z,3.50
2019-05-05T14:55:07.787Z,4.50
2019-05-05T14:57:36.536Z,4.47
2019-05-05T15:00:07.447Z,4.50
2019-05-05T15:02:36.252Z,2.40
2019-05-05T15:05:09.346Z,5.83
2019-05-05T15:07:45.387Z,1.23
2019-05-05T15:10:18.538Z,5.03
2019-05-05T15:12:56.085Z,2.77
2019-05-05T15:15:24.929Z,3.33
2019-05-05T15:17:53.817Z,4.63
2019-05-05T15:20:24.303Z,1.13
2019-05-05T15:22:54.164Z,3.55
2019-05-05T15:25:23.549Z,3.17
2019-05-05T15:27:54.218Z,2.60
2019-05-05T15:30:26.886Z,2.10
2019-05-05T15:32:54.124Z,3.03
2019-05-05T15:35:23.030Z,3.17
2019-05-05T15:37:53.653Z,2.60
2019-05-05T15:40:22.182Z,2.43
2019-05-05T15:42:50.940Z,2.70
2019-05-05T15:45:19.803Z,4.37
2019-05-05T15:47:48.623Z,0.67
2019-05-05T15:50:17.458Z,3.00
2019-05-05T15:52:46.225Z,3.43
2019-05-05T15:55:15.223Z,2.10
2019-05-05T15:57:44.412Z,2.53
2019-05-05T16:00:14.804Z,2.50
2019-05-05T16:02:44.177Z,2.00
2019-05-05T16:05:13.913Z,1.77
2019-05-05T16:07:44.005Z,3.67
2019-05-05T16:10:14.802Z,1.90
2019-05-05T16:12:45.023Z,1.63
2019-05-05T16:15:19.371Z,3.33
2019-05-05T16:18:03.786Z,4.30
2019-05-05T16:20:35.901Z,3.70
2019-05-05T16:23:22.393Z,3.23
2019-05-05T16:25:51.195Z,3.07
2019-05-05T16:28:20.011Z,3.83
2019-05-05T16:30:48.836Z,3.83
2019-05-05T16:33:17.640Z,4.53
2019-05-05T16:35:46.436Z,1.80
2019-05-05T16:38:15.215Z,2.23
2019-05-05T16:40:44.653Z,2.73
2019-05-05T16:43:14.088Z,0.30
2019-05-05T16:45:44.862Z,2.50
2019-05-05T16:48:13.679Z,1.83
2019-05-05T16:50:44.078Z,3.40
2019-05-05T16:53:31.026Z,1.00
2019-05-05T16:55:59.876Z,1.47
2019-05-05T16:58:28.639Z,3.83
2019-05-05T17:00:57.440Z,1.47
2019-05-05T17:03:26.172Z,1.30
2019-05-05T17:05:56.627Z,7.17
2019-05-05T17:08:25.352Z,7.07
2019-05-05T17:10:54.091Z,2.87
2019-05-05T17:13:30.429Z,6.70
2019-05-05T17:16:04.161Z,3.30
2019-05-05T17:18:54.090Z,2.97
2019-05-05T17:21:24.578Z,0.80
2019-05-05T17:23:53.957Z,3.10
2019-05-05T17:26:24.286Z,3.17
2019-05-05T17:28:54.081Z,3.00
2019-05-05T17:31:24.414Z,3.87
2019-05-05T17:33:53.590Z,10.53
2019-05-05T17:36:24.174Z,6.10
2019-05-05T17:38:54.341Z,15.90
2019-05-05T17:41:24.879Z,9.60
2019-05-05T17:44:06.830Z,4.77
2019-05-05T17:46:55.553Z,9.90
2019-05-05T17:49:28.953Z,9.07
2019-05-05T17:52:03.707Z,3.87
2019-05-05T17:54:34.191Z,7.20
2019-05-05T17:57:03.546Z,5.70
2019-05-05T17:59:33.710Z,6.80
2019-05-05T18:02:04.718Z,7.73
2019-05-05T18:04:33.801Z,5.10
2019-05-05T18:07:10.475Z,3.77
2019-05-05T18:09:57.250Z,11.77
2019-05-05T18:12:45.766Z,10.93
2019-05-05T18:15:34.125Z,1.83
2019-05-05T18:18:04.380Z,6.50
2019-05-05T18:20:34.154Z,5.10
2019-05-05T18:23:02.954Z,5.20
2019-05-05T18:25:31.750Z,3.90
2019-05-05T18:28:15.305Z,6.77
2019-05-05T18:30:30.862Z,7.70
2019-05-05T18:32:59.644Z,6.47
2019-05-05T18:35:28.376Z,6.40
2019-05-05T18:37:57.180Z,5.83
2019-05-05T18:40:25.933Z,5.37
2019-05-05T18:42:55.838Z,7.50
2019-05-05T18:45:24.649Z,4.93
2019-05-05T18:47:53.788Z,7.63
2019-05-05T18:50:24.379Z,5.77
2019-05-05T18:52:53.856Z,6.67
2019-05-05T18:55:22.785Z,6.63
2019-05-05T18:57:51.624Z,3.13
2019-05-05T19:00:24.580Z,7.13
2019-05-05T19:02:57.693Z,3.20
2019-05-05T19:05:34.460Z,3.33
2019-05-05T19:08:05.132Z,3.50
2019-05-05T19:10:34.136Z,11.70
2019-05-05T19:13:02.973Z,5.50
2019-05-05T19:15:31.886Z,7.30
2019-05-05T19:18:00.700Z,5.07
2019-05-05T19:20:35.227Z,2.60
2019-05-05T19:23:05.799Z,3.80
2019-05-05T19:25:35.786Z,9.07
2019-05-05T19:28:04.961Z,5.03
2019-05-05T19:30:36.196Z,11.23
2019-05-05T19:33:05.449Z,10.50
2019-05-05T19:35:43.637Z,7.30
2019-05-05T19:38:05.010Z,8.17
2019-05-05T19:40:34.150Z,12.47
2019-05-05T19:43:04.766Z,9.97
2019-05-05T19:45:34.395Z,7.73
2019-05-05T19:48:05.542Z,10.37
2019-05-05T19:50:38.251Z,5.17
2019-05-05T19:53:08.654Z,15.67
2019-05-05T19:55:37.404Z,10.97
2019-05-05T19:58:06.213Z,8.80
2019-05-05T20:00:38.308Z,13.83
2019-05-05T20:03:05.387Z,13.53
2019-05-05T20:05:34.223Z,10.10
2019-05-05T20:08:03.996Z,6.73
2019-05-05T20:10:32.990Z,8.53
2019-05-05T20:13:01.806Z,5.23
2019-05-05T20:15:33.798Z,13.90
2019-05-05T20:18:05.526Z,8.23
2019-05-05T20:20:34.315Z,7.13
2019-05-05T20:23:04.198Z,6.27
2019-05-05T20:25:34.175Z,7.50
2019-05-05T20:28:03.898Z,9.43
2019-05-05T20:30:34.290Z,6.07
2019-05-05T20:33:14.211Z,10.73
2019-05-05T20:35:44.592Z,7.93
2019-05-05T20:38:14.970Z,7.83
2019-05-05T20:40:45.398Z,13.63
2019-05-05T20:43:14.428Z,12.07
2019-05-05T20:45:44.267Z,21.70
2019-05-05T20:48:13.191Z,12.50
2019-05-05T20:50:43.872Z,23.03
2019-05-05T20:53:13.628Z,11.53
2019-05-05T20:55:44.605Z,21.57
2019-05-05T20:58:14.174Z,14.80
2019-05-05T21:00:44.208Z,13.07
2019-05-05T21:03:14.210Z,11.83
2019-05-05T21:05:44.045Z,19.10
2019-05-05T21:08:14.124Z,13.97
2019-05-05T21:10:44.268Z,19.93
2019-05-05T21:13:14.379Z,17.23
2019-05-05T21:15:45.044Z,18.20
2019-05-05T21:18:14.458Z,12.70
2019-05-05T21:20:44.242Z,12.73
2019-05-05T21:23:17.040Z,13.53
2019-05-05T21:25:53.865Z,18.30
2019-05-05T21:28:24.107Z,11.37
2019-05-05T21:30:53.967Z,15.03
2019-05-05T21:33:23.931Z,13.10
2019-05-05T21:35:54.895Z,15.30
2019-05-05T21:38:23.233Z,19.30
2019-05-05T21:40:52.055Z,10.40
2019-05-05T21:43:20.788Z,12.63
2019-05-05T21:45:49.526Z,13.10
2019-05-05T21:48:18.277Z,16.20
2019-05-05T21:50:53.890Z,14.53
2019-05-05T21:53:40.203Z,14.10
2019-05-05T21:56:27.094Z,14.40
2019-05-05T21:58:57.063Z,16.60
2019-05-05T22:01:27.686Z,9.20
2019-05-05T22:03:56.371Z,13.90
2019-05-05T22:06:25.201Z,10.23
2019-05-05T22:08:53.944Z,10.60
2019-05-05T22:11:24.240Z,14.73
2019-05-05T22:13:54.081Z,10.07
2019-05-05T22:16:44.467Z,18.17
2019-05-05T22:19:14.633Z,11.73
2019-05-05T22:21:47.313Z,9.97
2019-05-05T22:24:17.611Z,7.97
2019-05-05T22:26:46.730Z,8.67
2019-05-05T22:29:17.054Z,9.70
2019-05-05T22:31:46.194Z,4.73
2019-05-05T22:34:14.915Z,10.77
2019-05-05T22:36:44.841Z,9.43
2019-05-05T22:39:16.562Z,12.63
2019-05-05T22:41:44.747Z,13.17
2019-05-05T22:44:14.074Z,8.17
2019-05-05T22:46:43.062Z,11.93
2019-05-05T22:49:11.825Z,8.97
2019-05-05T22:51:40.610Z,10.40
2019-05-05T22:54:09.558Z,9.60
2019-05-05T22:56:38.462Z,14.70
2019-05-05T22:59:07.396Z,12.63
2019-05-05T23:01:36.214Z,15.03
2019-05-05T23:04:23.863Z,10.90
2019-05-05T23:07:11.869Z,9.80
2019-05-05T23:09:40.606Z,13.53
2019-05-05T23:12:09.373Z,10.93
2019-05-05T23:14:38.171Z,16.43
2019-05-05T23:17:08.543Z,7.80
2019-05-05T23:19:38.926Z,8.80
2019-05-05T23:22:27.557Z,5.50
2019-05-05T23:25:00.901Z,7.07
2019-05-05T23:27:49.377Z,6.27
2019-05-05T23:30:23.778Z,4.97
2019-05-05T23:32:54.635Z,15.03
2019-05-05T23:35:23.948Z,10.50
2019-05-05T23:37:55.040Z,4.27
2019-05-05T23:40:27.506Z,9.23
2019-05-05T23:42:56.233Z,9.63
2019-05-05T23:45:25.145Z,9.03
2019-05-05T23:47:54.606Z,10.40
2019-05-05T23:50:24.114Z,7.00
2019-05-05T23:52:54.524Z,7.37
2019-05-05T23:55:24.119Z,6.60
2019-05-05T23:57:54.726Z,11.60
